sensor_id;sensor_type;location;lat;lon;timestamp;pressure;altitude;pressure_sealevel;temperature;humidity
65897;BME280;52677;50.898;10.854;2023-02-19T00:01:36;98530.38;;;7.71;100.00
65897;BME280;52677;50.898;10.854;2023-02-19T00:03:37;98530.38;;;7.71;100.00
65897;BME280;52677;50.898;10.854;2023-02-19T00:05:38;98528.78;;;7.70;100.00
65897;BME280;52677;50.898;10.854;2023-02-19T00:07:39;98524.09;;;7.70;100.00
65897;BME280;52677;50.898;10.854;2023-02-19T00:09:39;98519.19;;;7.64;100.00
65897;BME280;52677;50.898;10.854;2023-02-19T00:11:39;98509.94;;;7.72;100.00
65897;BME280;52677;50.898;10.854;2023-02-19T00:13:42;98516.69;;;7.74;100.00
65897;BME280;52677;50.898;10.854;2023-02-19T00:15:42;98518.72;;;7.77;100.00
65897;BME280;52677;50.898;10.854;2023-02-19T00:17:42;98523.59;;;7.84;100.00
65897;BME280;52677;50.898;10.854;2023-02-19T00:19:43;98523.22;;;7.85;100.00
65897;BME280;52677;50.898;10.854;2023-02-19T00:21:43;98527.59;;;7.86;100.00
65897;BME280;52677;50.898;10.854;2023-02-19T00:23:51;98518.09;;;7.84;100.00
65897;BME280;52677;50.898;10.854;2023-02-19T00:25:51;98519.25;;;7.83;100.00
65897;BME280;52677;50.898;10.854;2023-02-19T00:27:51;98520.78;;;7.80;100.00
65897;BME280;52677;50.898;10.854;2023-02-19T00:29:52;98510.91;;;7.79;100.00
65897;BME280;52677;50.898;10.854;2023-02-19T00:31:53;98497.56;;;7.81;100.00
65897;BME280;52677;50.898;10.854;2023-02-19T00:33:55;98497.63;;;7.85;100.00
65897;BME280;52677;50.898;10.854;2023-02-19T00:35:58;98498.00;;;7.83;100.00
65897;BME280;52677;50.898;10.854;2023-02-19T00:37:58;98491.16;;;7.77;100.00
65897;BME280;52677;50.898;10.854;2023-02-19T00:39:58;98476.28;;;7.78;100.00
65897;BME280;52677;50.898;10.854;2023-02-19T00:41:59;98484.00;;;7.73;100.00
65897;BME280;52677;50.898;10.854;2023-02-19T00:44:02;98482.78;;;7.70;100.00
65897;BME280;52677;50.898;10.854;2023-02-19T00:46:03;98486.38;;;7.74;100.00
65897;BME280;52677;50.898;10.854;2023-02-19T00:48:03;98477.50;;;7.81;100.00
65897;BME280;52677;50.898;10.854;2023-02-19T00:50:04;98471.88;;;7.77;100.00
65897;BME280;52677;50.898;10.854;2023-02-19T00:52:04;98462.63;;;7.85;100.00
65897;BME280;52677;50.898;10.854;2023-02-19T00:54:04;98457.47;;;7.84;100.00
65897;BME280;52677;50.898;10.854;2023-02-19T00:56:05;98443.72;;;7.84;100.00
65897;BME280;52677;50.898;10.854;2023-02-19T00:58:06;98438.78;;;7.93;100.00
65897;BME280;52677;50.898;10.854;2023-02-19T01:00:07;98445.84;;;7.91;100.00
65897;BME280;52677;50.898;10.854;2023-02-19T01:02:07;98443.44;;;7.89;100.00
65897;BME280;52677;50.898;10.854;2023-02-19T01:04:07;98449.75;;;7.89;100.00
65897;BME280;52677;50.898;10.854;2023-02-19T01:06:09;98439.53;;;7.90;100.00
65897;BME280;52677;50.898;10.854;2023-02-19T01:08:10;98450.91;;;7.88;100.00
65897;BME280;52677;50.898;10.854;2023-02-19T01:10:10;98455.16;;;7.86;100.00
65897;BME280;52677;50.898;10.854;2023-02-19T01:12:10;98464.16;;;7.83;100.00
65897;BME280;52677;50.898;10.854;2023-02-19T01:14:11;98452.78;;;7.84;100.00
65897;BME280;52677;50.898;10.854;2023-02-19T01:16:20;98465.38;;;7.85;100.00
65897;BME280;52677;50.898;10.854;2023-02-19T01:18:21;98457.66;;;7.91;100.00
65897;BME280;52677;50.898;10.854;2023-02-19T01:20:21;98433.75;;;7.95;100.00
65897;BME280;52677;50.898;10.854;2023-02-19T01:22:22;98437.28;;;7.96;100.00
65897;BME280;52677;50.898;10.854;2023-02-19T01:24:22;98419.97;;;7.95;100.00
65897;BME280;52677;50.898;10.854;2023-02-19T01:26:24;98421.56;;;7.96;100.00
65897;BME280;52677;50.898;10.854;2023-02-19T01:28:25;98422.19;;;7.89;100.00
65897;BME280;52677;50.898;10.854;2023-02-19T01:30:26;98420.25;;;7.90;100.00
65897;BME280;52677;50.898;10.854;2023-02-19T01:32:26;98418.66;;;7.89;100.00
65897;BME280;52677;50.898;10.854;2023-02-19T01:34:27;98426.53;;;7.91;100.00
65897;BME280;52677;50.898;10.854;2023-02-19T01:36:32;98412.50;;;7.96;100.00
65897;BME280;52677;50.898;10.854;2023-02-19T01:38:32;98409.28;;;7.94;100.00
65897;BME280;52677;50.898;10.854;2023-02-19T01:40:33;98411.53;;;7.88;100.00
65897;BME280;52677;50.898;10.854;2023-02-19T01:42:33;98409.59;;;7.88;100.00
65897;BME280;52677;50.898;10.854;2023-02-19T01:46:35;98406.97;;;7.96;100.00
65897;BME280;52677;50.898;10.854;2023-02-19T01:48:37;98403.50;;;7.99;100.00
65897;BME280;52677;50.898;10.854;2023-02-19T01:50:45;98398.03;;;8.02;100.00
65897;BME280;52677;50.898;10.854;2023-02-19T01:52:47;98397.47;;;7.93;100.00
65897;BME280;52677;50.898;10.854;2023-02-19T01:54:48;98399.00;;;7.91;100.00
65897;BME280;52677;50.898;10.854;2023-02-19T01:56:50;98395.38;;;7.86;100.00
65897;BME280;52677;50.898;10.854;2023-02-19T01:58:51;98386.75;;;7.88;100.00
65897;BME280;52677;50.898;10.854;2023-02-19T02:00:52;98400.97;;;7.90;100.00
65897;BME280;52677;50.898;10.854;2023-02-19T02:02:55;98397.78;;;7.88;100.00
65897;BME280;52677;50.898;10.854;2023-02-19T02:04:58;98408.84;;;7.92;100.00
65897;BME280;52677;50.898;10.854;2023-02-19T02:07:01;98403.44;;;7.95;100.00
65897;BME280;52677;50.898;10.854;2023-02-19T02:09:02;98402.69;;;7.98;100.00
65897;BME280;52677;50.898;10.854;2023-02-19T02:11:21;98396.75;;;7.96;100.00
65897;BME280;52677;50.898;10.854;2023-02-19T02:13:22;98382.84;;;7.89;100.00
65897;BME280;52677;50.898;10.854;2023-02-19T02:15:34;98378.63;;;7.95;100.00
65897;BME280;52677;50.898;10.854;2023-02-19T02:17:58;98376.59;;;7.92;100.00
65897;BME280;52677;50.898;10.854;2023-02-19T02:22:17;98362.16;;;7.99;100.00
65897;BME280;52677;50.898;10.854;2023-02-19T02:28:49;98354.31;;;8.01;100.00
65897;BME280;52677;50.898;10.854;2023-02-19T02:30:58;98364.13;;;7.98;100.00
65897;BME280;52677;50.898;10.854;2023-02-19T02:35:40;98343.31;;;8.01;100.00
65897;BME280;52677;50.898;10.854;2023-02-19T02:37:42;98348.81;;;8.01;100.00
65897;BME280;52677;50.898;10.854;2023-02-19T02:39:44;98344.41;;;7.96;100.00
65897;BME280;52677;50.898;10.854;2023-02-19T02:41:49;98348.25;;;7.92;100.00
65897;BME280;52677;50.898;10.854;2023-02-19T02:44:13;98336.56;;;7.98;100.00
65897;BME280;52677;50.898;10.854;2023-02-19T02:46:18;98333.44;;;8.00;100.00
65897;BME280;52677;50.898;10.854;2023-02-19T02:48:39;98325.28;;;8.03;100.00
65897;BME280;52677;50.898;10.854;2023-02-19T02:53:02;98330.31;;;8.01;100.00
65897;BME280;52677;50.898;10.854;2023-02-19T02:55:24;98318.09;;;7.99;100.00
65897;BME280;52677;50.898;10.854;2023-02-19T02:57:25;98318.81;;;7.96;100.00
65897;BME280;52677;50.898;10.854;2023-02-19T02:59:29;98328.75;;;8.00;100.00
65897;BME280;52677;50.898;10.854;2023-02-19T03:04:04;98321.22;;;7.97;100.00
65897;BME280;52677;50.898;10.854;2023-02-19T03:06:08;98326.34;;;7.99;100.00
65897;BME280;52677;50.898;10.854;2023-02-19T03:10:39;98332.88;;;7.91;100.00
65897;BME280;52677;50.898;10.854;2023-02-19T03:12:41;98325.78;;;7.89;100.00
65897;BME280;52677;50.898;10.854;2023-02-19T03:15:07;98336.28;;;7.84;100.00
65897;BME280;52677;50.898;10.854;2023-02-19T03:17:43;98321.28;;;7.81;100.00
65897;BME280;52677;50.898;10.854;2023-02-19T03:20:09;98315.72;;;7.78;100.00
65897;BME280;52677;50.898;10.854;2023-02-19T03:22:16;98317.66;;;7.77;100.00
65897;BME280;52677;50.898;10.854;2023-02-19T03:24:22;98320.88;;;7.79;100.00
65897;BME280;52677;50.898;10.854;2023-02-19T03:26:42;98334.28;;;7.81;100.00
65897;BME280;52677;50.898;10.854;2023-02-19T03:28:46;98321.44;;;7.88;100.00
65897;BME280;52677;50.898;10.854;2023-02-19T03:31:10;98313.47;;;7.83;100.00
65897;BME280;52677;50.898;10.854;2023-02-19T03:33:24;98311.81;;;7.79;100.00
65897;BME280;52677;50.898;10.854;2023-02-19T03:35:30;98321.56;;;7.76;100.00
65897;BME280;52677;50.898;10.854;2023-02-19T03:37:37;98313.31;;;7.76;100.00
65897;BME280;52677;50.898;10.854;2023-02-19T03:39:40;98316.06;;;7.76;100.00
65897;BME280;52677;50.898;10.854;2023-02-19T03:44:59;98310.34;;;7.85;100.00
65897;BME280;52677;50.898;10.854;2023-02-19T03:49:29;98307.28;;;7.90;100.00
65897;BME280;52677;50.898;10.854;2023-02-19T03:51:35;98317.53;;;7.89;100.00
65897;BME280;52677;50.898;10.854;2023-02-19T03:56:05;98302.44;;;8.03;100.00
65897;BME280;52677;50.898;10.854;2023-02-19T04:00:34;98298.06;;;8.02;100.00
65897;BME280;52677;50.898;10.854;2023-02-19T04:05:11;98303.47;;;7.95;100.00
65897;BME280;52677;50.898;10.854;2023-02-19T04:07:13;98319.25;;;7.98;100.00
65897;BME280;52677;50.898;10.854;2023-02-19T04:09:13;98306.66;;;7.97;100.00
65897;BME280;52677;50.898;10.854;2023-02-19T04:11:15;98305.34;;;7.91;100.00
65897;BME280;52677;50.898;10.854;2023-02-19T04:13:25;98313.19;;;7.88;100.00
65897;BME280;52677;50.898;10.854;2023-02-19T04:15:29;98309.69;;;7.92;100.00
65897;BME280;52677;50.898;10.854;2023-02-19T04:17:38;98303.31;;;7.87;100.00
65897;BME280;52677;50.898;10.854;2023-02-19T04:19:41;98306.56;;;7.93;100.00
65897;BME280;52677;50.898;10.854;2023-02-19T04:21:43;98294.69;;;7.89;100.00
65897;BME280;52677;50.898;10.854;2023-02-19T04:23:44;98312.44;;;7.92;100.00
65897;BME280;52677;50.898;10.854;2023-02-19T04:25:47;98315.13;;;7.88;100.00
65897;BME280;52677;50.898;10.854;2023-02-19T04:27:49;98314.63;;;7.82;100.00
65897;BME280;52677;50.898;10.854;2023-02-19T04:29:49;98326.75;;;7.78;100.00
65897;BME280;52677;50.898;10.854;2023-02-19T04:31:49;98321.00;;;7.86;100.00
65897;BME280;52677;50.898;10.854;2023-02-19T04:33:50;98325.28;;;7.84;100.00
65897;BME280;52677;50.898;10.854;2023-02-19T04:35:50;98325.69;;;7.86;100.00
65897;BME280;52677;50.898;10.854;2023-02-19T04:37:50;98318.25;;;7.86;100.00
65897;BME280;52677;50.898;10.854;2023-02-19T04:39:51;98317.09;;;7.87;100.00
65897;BME280;52677;50.898;10.854;2023-02-19T04:41:51;98311.22;;;7.89;100.00
65897;BME280;52677;50.898;10.854;2023-02-19T04:43:51;98307.53;;;7.81;100.00
65897;BME280;52677;50.898;10.854;2023-02-19T04:45:52;98312.25;;;7.81;100.00
65897;BME280;52677;50.898;10.854;2023-02-19T04:47:52;98313.53;;;7.87;100.00
65897;BME280;52677;50.898;10.854;2023-02-19T04:49:52;98313.59;;;7.91;100.00
65897;BME280;52677;50.898;10.854;2023-02-19T04:51:52;98309.53;;;7.84;100.00
65897;BME280;52677;50.898;10.854;2023-02-19T04:53:53;98320.69;;;7.92;100.00
65897;BME280;52677;50.898;10.854;2023-02-19T04:55:55;98325.56;;;7.98;100.00
65897;BME280;52677;50.898;10.854;2023-02-19T04:57:55;98321.63;;;7.99;100.00
65897;BME280;52677;50.898;10.854;2023-02-19T04:59:55;98330.78;;;8.03;100.00
65897;BME280;52677;50.898;10.854;2023-02-19T05:01:56;98320.19;;;8.05;100.00
65897;BME280;52677;50.898;10.854;2023-02-19T05:03:57;98321.78;;;8.06;100.00
65897;BME280;52677;50.898;10.854;2023-02-19T05:06:04;98330.78;;;8.03;100.00
65897;BME280;52677;50.898;10.854;2023-02-19T05:08:05;98326.41;;;8.02;100.00
65897;BME280;52677;50.898;10.854;2023-02-19T05:10:05;98336.06;;;8.12;100.00
65897;BME280;52677;50.898;10.854;2023-02-19T05:12:05;98335.56;;;8.06;100.00
65897;BME280;52677;50.898;10.854;2023-02-19T05:14:06;98336.78;;;8.09;100.00
65897;BME280;52677;50.898;10.854;2023-02-19T05:16:09;98343.88;;;8.10;100.00
65897;BME280;52677;50.898;10.854;2023-02-19T05:18:12;98344.56;;;8.03;100.00
65897;BME280;52677;50.898;10.854;2023-02-19T05:20:13;98349.56;;;7.98;100.00
65897;BME280;52677;50.898;10.854;2023-02-19T05:22:13;98349.41;;;7.91;100.00
65897;BME280;52677;50.898;10.854;2023-02-19T05:24:13;98344.91;;;7.82;100.00
65897;BME280;52677;50.898;10.854;2023-02-19T05:26:16;98356.16;;;7.74;100.00
65897;BME280;52677;50.898;10.854;2023-02-19T05:28:17;98365.16;;;7.71;100.00
65897;BME280;52677;50.898;10.854;2023-02-19T05:30:17;98358.31;;;7.65;100.00
65897;BME280;52677;50.898;10.854;2023-02-19T05:32:18;98359.06;;;7.62;100.00
65897;BME280;52677;50.898;10.854;2023-02-19T05:34:18;98354.19;;;7.55;100.00
65897;BME280;52677;50.898;10.854;2023-02-19T05:36:20;98366.00;;;7.55;100.00
65897;BME280;52677;50.898;10.854;2023-02-19T05:38:21;98376.91;;;7.52;100.00
65897;BME280;52677;50.898;10.854;2023-02-19T05:40:22;98385.19;;;7.52;100.00
65897;BME280;52677;50.898;10.854;2023-02-19T05:42:22;98376.84;;;7.48;100.00
65897;BME280;52677;50.898;10.854;2023-02-19T05:44:23;98377.50;;;7.42;100.00
65897;BME280;52677;50.898;10.854;2023-02-19T05:46:26;98379.09;;;7.43;100.00
65897;BME280;52677;50.898;10.854;2023-02-19T05:48:26;98379.81;;;7.40;100.00
65897;BME280;52677;50.898;10.854;2023-02-19T05:50:28;98397.38;;;7.35;100.00
65897;BME280;52677;50.898;10.854;2023-02-19T05:52:29;98393.03;;;7.34;100.00
65897;BME280;52677;50.898;10.854;2023-02-19T05:54:29;98390.28;;;7.34;100.00
65897;BME280;52677;50.898;10.854;2023-02-19T05:56:40;98409.50;;;7.30;100.00
65897;BME280;52677;50.898;10.854;2023-02-19T05:58:41;98406.00;;;7.33;100.00
65897;BME280;52677;50.898;10.854;2023-02-19T06:00:41;98405.22;;;7.33;100.00
65897;BME280;52677;50.898;10.854;2023-02-19T06:02:42;98427.84;;;7.26;100.00
65897;BME280;52677;50.898;10.854;2023-02-19T06:04:42;98424.31;;;7.26;100.00
65897;BME280;52677;50.898;10.854;2023-02-19T06:06:42;98426.81;;;7.31;100.00
65897;BME280;52677;50.898;10.854;2023-02-19T06:08:43;98425.09;;;7.26;100.00
65897;BME280;52677;50.898;10.854;2023-02-19T06:10:43;98433.53;;;7.33;100.00
65897;BME280;52677;50.898;10.854;2023-02-19T06:12:43;98442.69;;;7.38;100.00
65897;BME280;52677;50.898;10.854;2023-02-19T06:14:44;98427.84;;;7.26;100.00
65897;BME280;52677;50.898;10.854;2023-02-19T06:16:44;98431.34;;;7.23;100.00
65897;BME280;52677;50.898;10.854;2023-02-19T06:18:45;98435.06;;;7.15;100.00
65897;BME280;52677;50.898;10.854;2023-02-19T06:20:45;98440.66;;;7.19;100.00
65897;BME280;52677;50.898;10.854;2023-02-19T06:22:48;98450.16;;;7.21;100.00
65897;BME280;52677;50.898;10.854;2023-02-19T06:24:49;98449.69;;;7.19;100.00
65897;BME280;52677;50.898;10.854;2023-02-19T06:26:49;98461.50;;;7.20;100.00
65897;BME280;52677;50.898;10.854;2023-02-19T06:28:50;98463.28;;;7.28;100.00
65897;BME280;52677;50.898;10.854;2023-02-19T06:30:51;98456.09;;;7.23;100.00
65897;BME280;52677;50.898;10.854;2023-02-19T06:32:51;98456.81;;;7.20;100.00
65897;BME280;52677;50.898;10.854;2023-02-19T06:34:52;98464.97;;;7.17;100.00
65897;BME280;52677;50.898;10.854;2023-02-19T06:36:53;98457.34;;;7.10;100.00
65897;BME280;52677;50.898;10.854;2023-02-19T06:38:53;98460.88;;;7.11;100.00
65897;BME280;52677;50.898;10.854;2023-02-19T06:40:54;98471.63;;;7.16;100.00
65897;BME280;52677;50.898;10.854;2023-02-19T06:42:54;98460.44;;;7.09;100.00
65897;BME280;52677;50.898;10.854;2023-02-19T06:44:55;98469.06;;;7.07;100.00
65897;BME280;52677;50.898;10.854;2023-02-19T06:46:55;98474.56;;;7.07;100.00
65897;BME280;52677;50.898;10.854;2023-02-19T06:48:55;98485.13;;;7.05;100.00
65897;BME280;52677;50.898;10.854;2023-02-19T06:50:56;98489.75;;;7.17;100.00
65897;BME280;52677;50.898;10.854;2023-02-19T06:52:56;98493.03;;;7.07;100.00
65897;BME280;52677;50.898;10.854;2023-02-19T06:54:57;98501.19;;;7.03;100.00
65897;BME280;52677;50.898;10.854;2023-02-19T06:56:57;98509.91;;;7.05;100.00
65897;BME280;52677;50.898;10.854;2023-02-19T06:59:00;98503.59;;;7.04;100.00
65897;BME280;52677;50.898;10.854;2023-02-19T07:01:00;98514.06;;;6.99;100.00
65897;BME280;52677;50.898;10.854;2023-02-19T07:03:01;98513.16;;;6.95;100.00
65897;BME280;52677;50.898;10.854;2023-02-19T07:05:01;98519.19;;;7.00;100.00
65897;BME280;52677;50.898;10.854;2023-02-19T07:07:01;98514.78;;;6.96;100.00
65897;BME280;52677;50.898;10.854;2023-02-19T07:09:03;98521.06;;;6.96;100.00
65897;BME280;52677;50.898;10.854;2023-02-19T07:11:04;98521.94;;;7.00;100.00
65897;BME280;52677;50.898;10.854;2023-02-19T07:13:04;98529.03;;;7.01;100.00
65897;BME280;52677;50.898;10.854;2023-02-19T07:15:05;98525.41;;;6.97;100.00
65897;BME280;52677;50.898;10.854;2023-02-19T07:17:05;98526.03;;;7.07;100.00
65897;BME280;52677;50.898;10.854;2023-02-19T07:19:06;98526.28;;;7.01;100.00
65897;BME280;52677;50.898;10.854;2023-02-19T07:21:10;98526.22;;;6.98;100.00
65897;BME280;52677;50.898;10.854;2023-02-19T07:23:11;98538.38;;;6.97;100.00
65897;BME280;52677;50.898;10.854;2023-02-19T07:25:12;98527.72;;;6.95;100.00
65897;BME280;52677;50.898;10.854;2023-02-19T07:27:12;98533.75;;;7.01;100.00
65897;BME280;52677;50.898;10.854;2023-02-19T07:29:12;98537.66;;;7.00;100.00
65897;BME280;52677;50.898;10.854;2023-02-19T07:31:14;98550.81;;;7.07;100.00
65897;BME280;52677;50.898;10.854;2023-02-19T07:33:14;98555.50;;;7.06;100.00
65897;BME280;52677;50.898;10.854;2023-02-19T07:35:15;98557.53;;;7.09;100.00
65897;BME280;52677;50.898;10.854;2023-02-19T07:37:15;98561.56;;;7.12;100.00
65897;BME280;52677;50.898;10.854;2023-02-19T07:39:15;98560.56;;;7.20;100.00
65897;BME280;52677;50.898;10.854;2023-02-19T07:41:16;98554.97;;;7.16;100.00
65897;BME280;52677;50.898;10.854;2023-02-19T07:43:17;98564.03;;;7.17;100.00
65897;BME280;52677;50.898;10.854;2023-02-19T07:45:17;98565.75;;;7.21;100.00
65897;BME280;52677;50.898;10.854;2023-02-19T07:47:18;98574.25;;;7.32;100.00
65897;BME280;52677;50.898;10.854;2023-02-19T07:49:18;98573.91;;;7.33;100.00
65897;BME280;52677;50.898;10.854;2023-02-19T07:51:19;98584.22;;;7.37;100.00
65897;BME280;52677;50.898;10.854;2023-02-19T07:53:20;98576.84;;;7.41;100.00
65897;BME280;52677;50.898;10.854;2023-02-19T07:55:20;98574.81;;;7.38;100.00
65897;BME280;52677;50.898;10.854;2023-02-19T07:57:21;98578.00;;;7.40;100.00
65897;BME280;52677;50.898;10.854;2023-02-19T07:59:21;98590.59;;;7.41;100.00
65897;BME280;52677;50.898;10.854;2023-02-19T08:01:23;98584.66;;;7.39;100.00
65897;BME280;52677;50.898;10.854;2023-02-19T08:03:44;98592.81;;;7.35;100.00
65897;BME280;52677;50.898;10.854;2023-02-19T08:05:44;98603.13;;;7.38;100.00
65897;BME280;52677;50.898;10.854;2023-02-19T08:07:45;98600.81;;;7.40;100.00
65897;BME280;52677;50.898;10.854;2023-02-19T08:09:45;98604.81;;;7.43;100.00
65897;BME280;52677;50.898;10.854;2023-02-19T08:12:07;98603.22;;;7.42;100.00
65897;BME280;52677;50.898;10.854;2023-02-19T08:14:27;98612.47;;;7.49;100.00
65897;BME280;52677;50.898;10.854;2023-02-19T08:16:27;98625.41;;;7.49;100.00
65897;BME280;52677;50.898;10.854;2023-02-19T08:18:30;98621.88;;;7.48;100.00
65897;BME280;52677;50.898;10.854;2023-02-19T08:20:30;98625.16;;;7.54;100.00
65897;BME280;52677;50.898;10.854;2023-02-19T08:22:30;98618.16;;;7.56;100.00
65897;BME280;52677;50.898;10.854;2023-02-19T08:24:31;98615.66;;;7.51;100.00
65897;BME280;52677;50.898;10.854;2023-02-19T08:26:33;98625.63;;;7.56;100.00
65897;BME280;52677;50.898;10.854;2023-02-19T08:28:33;98633.88;;;7.56;100.00
65897;BME280;52677;50.898;10.854;2023-02-19T08:30:34;98646.91;;;7.59;100.00
65897;BME280;52677;50.898;10.854;2023-02-19T08:32:35;98641.97;;;7.65;100.00
65897;BME280;52677;50.898;10.854;2023-02-19T08:34:35;98638.66;;;7.59;100.00
65897;BME280;52677;50.898;10.854;2023-02-19T08:36:37;98646.31;;;7.66;100.00
65897;BME280;52677;50.898;10.854;2023-02-19T08:38:37;98639.03;;;7.73;100.00
65897;BME280;52677;50.898;10.854;2023-02-19T08:40:38;98649.13;;;7.69;100.00
65897;BME280;52677;50.898;10.854;2023-02-19T08:42:39;98649.13;;;7.69;100.00
65897;BME280;52677;50.898;10.854;2023-02-19T08:44:39;98656.16;;;7.67;100.00
65897;BME280;52677;50.898;10.854;2023-02-19T08:46:40;98653.69;;;7.62;100.00
65897;BME280;52677;50.898;10.854;2023-02-19T08:48:40;98662.28;;;7.60;100.00
65897;BME280;52677;50.898;10.854;2023-02-19T08:50:40;98670.66;;;7.64;100.00
65897;BME280;52677;50.898;10.854;2023-02-19T08:52:41;98670.47;;;7.56;100.00
65897;BME280;52677;50.898;10.854;2023-02-19T08:54:41;98666.00;;;7.52;100.00
65897;BME280;52677;50.898;10.854;2023-02-19T08:56:41;98692.75;;;7.67;100.00
65897;BME280;52677;50.898;10.854;2023-02-19T08:58:42;98690.53;;;7.57;100.00
65897;BME280;52677;50.898;10.854;2023-02-19T09:00:43;98696.13;;;7.60;100.00
65897;BME280;52677;50.898;10.854;2023-02-19T09:02:43;98697.63;;;7.58;100.00
65897;BME280;52677;50.898;10.854;2023-02-19T09:04:44;98694.69;;;7.51;100.00
65897;BME280;52677;50.898;10.854;2023-02-19T09:06:44;98689.72;;;7.41;100.00
65897;BME280;52677;50.898;10.854;2023-02-19T09:08:45;98691.31;;;7.42;100.00
65897;BME280;52677;50.898;10.854;2023-02-19T09:10:56;98688.47;;;7.38;100.00
65897;BME280;52677;50.898;10.854;2023-02-19T09:12:56;98694.66;;;7.35;100.00
65897;BME280;52677;50.898;10.854;2023-02-19T09:14:56;98703.56;;;7.44;100.00
65897;BME280;52677;50.898;10.854;2023-02-19T09:16:57;98696.66;;;7.50;100.00
65897;BME280;52677;50.898;10.854;2023-02-19T09:18:57;98693.00;;;7.46;100.00
65897;BME280;52677;50.898;10.854;2023-02-19T09:21:02;98709.88;;;7.45;100.00
65897;BME280;52677;50.898;10.854;2023-02-19T09:23:03;98703.66;;;7.48;100.00
65897;BME280;52677;50.898;10.854;2023-02-19T09:25:04;98701.78;;;7.52;100.00
65897;BME280;52677;50.898;10.854;2023-02-19T09:27:04;98713.38;;;7.57;100.00
65897;BME280;52677;50.898;10.854;2023-02-19T09:29:04;98717.34;;;7.60;100.00
65897;BME280;52677;50.898;10.854;2023-02-19T09:31:06;98705.22;;;7.77;100.00
65897;BME280;52677;50.898;10.854;2023-02-19T09:33:07;98706.53;;;7.67;100.00
65897;BME280;52677;50.898;10.854;2023-02-19T09:35:08;98723.00;;;7.79;100.00
65897;BME280;52677;50.898;10.854;2023-02-19T09:37:08;98718.13;;;7.88;100.00
65897;BME280;52677;50.898;10.854;2023-02-19T09:39:08;98728.75;;;7.74;100.00
65897;BME280;52677;50.898;10.854;2023-02-19T09:41:16;98723.00;;;7.79;100.00
65897;BME280;52677;50.898;10.854;2023-02-19T09:43:21;98731.94;;;7.76;100.00
65897;BME280;52677;50.898;10.854;2023-02-19T09:45:24;98725.13;;;7.70;100.00
65897;BME280;52677;50.898;10.854;2023-02-19T09:47:27;98719.34;;;7.75;100.00
65897;BME280;52677;50.898;10.854;2023-02-19T09:49:35;98741.00;;;7.77;100.00
65897;BME280;52677;50.898;10.854;2023-02-19T09:51:39;98766.28;;;7.79;100.00
65897;BME280;52677;50.898;10.854;2023-02-19T09:53:43;98772.91;;;7.62;100.00
65897;BME280;52677;50.898;10.854;2023-02-19T09:55:44;98781.84;;;7.31;100.00
65897;BME280;52677;50.898;10.854;2023-02-19T09:57:45;98780.78;;;6.83;100.00
65897;BME280;52677;50.898;10.854;2023-02-19T09:59:51;98787.91;;;6.72;100.00
65897;BME280;52677;50.898;10.854;2023-02-19T10:02:10;98798.69;;;6.65;100.00
65897;BME280;52677;50.898;10.854;2023-02-19T10:04:12;98794.91;;;6.57;100.00
65897;BME280;52677;50.898;10.854;2023-02-19T10:06:17;98794.44;;;6.43;100.00
65897;BME280;52677;50.898;10.854;2023-02-19T10:08:19;98801.66;;;6.23;100.00
65897;BME280;52677;50.898;10.854;2023-02-19T10:10:27;98808.69;;;6.12;100.00
65897;BME280;52677;50.898;10.854;2023-02-19T10:12:30;98810.09;;;6.06;100.00
65897;BME280;52677;50.898;10.854;2023-02-19T10:14:43;98831.00;;;5.98;100.00
65897;BME280;52677;50.898;10.854;2023-02-19T10:16:47;98830.91;;;5.86;100.00
65897;BME280;52677;50.898;10.854;2023-02-19T10:18:49;98833.50;;;5.91;100.00
65897;BME280;52677;50.898;10.854;2023-02-19T10:20:51;98836.50;;;5.98;100.00
65897;BME280;52677;50.898;10.854;2023-02-19T10:23:04;98837.44;;;5.81;100.00
65897;BME280;52677;50.898;10.854;2023-02-19T10:25:05;98848.34;;;5.90;100.00
65897;BME280;52677;50.898;10.854;2023-02-19T10:27:11;98861.56;;;5.76;100.00
65897;BME280;52677;50.898;10.854;2023-02-19T10:29:11;98859.75;;;5.80;100.00
65897;BME280;52677;50.898;10.854;2023-02-19T10:31:17;98867.47;;;5.66;100.00
65897;BME280;52677;50.898;10.854;2023-02-19T10:33:18;98868.94;;;5.63;100.00
65897;BME280;52677;50.898;10.854;2023-02-19T10:35:18;98871.53;;;5.59;100.00
65897;BME280;52677;50.898;10.854;2023-02-19T10:37:19;98871.53;;;5.59;100.00
65897;BME280;52677;50.898;10.854;2023-02-19T10:39:41;98890.41;;;5.61;100.00
65897;BME280;52677;50.898;10.854;2023-02-19T10:41:42;98892.88;;;5.54;100.00
65897;BME280;52677;50.898;10.854;2023-02-19T10:43:51;98896.44;;;5.54;100.00
65897;BME280;52677;50.898;10.854;2023-02-19T10:45:53;98897.13;;;5.51;100.00
65897;BME280;52677;50.898;10.854;2023-02-19T10:47:54;98903.34;;;5.60;100.00
65897;BME280;52677;50.898;10.854;2023-02-19T10:49:57;98904.66;;;5.54;100.00
65897;BME280;52677;50.898;10.854;2023-02-19T10:52:01;98911.44;;;5.57;100.00
65897;BME280;52677;50.898;10.854;2023-02-19T10:54:19;98913.06;;;5.58;100.00
65897;BME280;52677;50.898;10.854;2023-02-19T10:56:25;98905.69;;;5.71;100.00
65897;BME280;52677;50.898;10.854;2023-02-19T10:58:25;98915.78;;;5.79;100.00
65897;BME280;52677;50.898;10.854;2023-02-19T11:00:28;98919.81;;;5.81;100.00
65897;BME280;52677;50.898;10.854;2023-02-19T11:02:29;98921.44;;;5.82;100.00
65897;BME280;52677;50.898;10.854;2023-02-19T11:04:32;98930.94;;;5.85;100.00
65897;BME280;52677;50.898;10.854;2023-02-19T11:06:37;98920.97;;;5.80;100.00
65897;BME280;52677;50.898;10.854;2023-02-19T11:10:46;98951.75;;;5.86;100.00
65897;BME280;52677;50.898;10.854;2023-02-19T11:12:49;98954.34;;;5.91;100.00
65897;BME280;52677;50.898;10.854;2023-02-19T11:14:50;98959.66;;;5.87;100.00
65897;BME280;52677;50.898;10.854;2023-02-19T11:16:55;98961.88;;;5.73;100.00